createdAt,value
2023-05-09T00:00:37.176Z,991.54
2023-05-09T00:01:37.180Z,991.55
2023-05-09T00:02:37.167Z,991.55
2023-05-09T00:03:37.140Z,991.56
2023-05-09T00:04:37.140Z,991.55
2023-05-09T00:05:37.109Z,991.55
2023-05-09T00:06:37.088Z,991.56
2023-05-09T00:07:37.092Z,991.57
2023-05-09T00:08:37.080Z,991.58
2023-05-09T00:09:37.176Z,991.58
2023-05-09T00:10:37.073Z,991.58
2023-05-09T00:11:37.070Z,991.57
2023-05-09T00:12:37.081Z,991.55
2023-05-09T00:13:37.030Z,991.55
2023-05-09T00:14:37.056Z,991.54
2023-05-09T00:15:37.067Z,991.54
2023-05-09T00:16:37.134Z,991.53
2023-05-09T00:17:37.013Z,991.52
2023-05-09T00:18:37.014Z,991.52
2023-05-09T00:19:36.985Z,991.52
2023-05-09T00:20:37.002Z,991.53
2023-05-09T00:21:37.108Z,991.54
2023-05-09T00:22:36.973Z,991.55
2023-05-09T00:23:36.954Z,991.55
2023-05-09T00:24:36.954Z,991.53
2023-05-09T00:25:37.017Z,991.52
2023-05-09T00:26:36.977Z,991.50
2023-05-09T00:27:36.916Z,991.48
2023-05-09T00:28:36.948Z,991.46
2023-05-09T00:29:36.912Z,991.43
2023-05-09T00:30:36.910Z,991.41
2023-05-09T00:31:36.948Z,991.41
2023-05-09T00:32:36.944Z,991.41
2023-05-09T00:33:36.864Z,991.40
2023-05-09T00:34:36.874Z,991.39
2023-05-09T00:35:36.855Z,991.37
2023-05-09T00:36:36.848Z,991.35
2023-05-09T00:37:36.855Z,991.35
2023-05-09T00:38:36.863Z,991.34
2023-05-09T00:39:36.819Z,991.32
2023-05-09T00:40:36.824Z,991.31
2023-05-09T00:41:36.888Z,991.31
2023-05-09T00:42:36.819Z,991.32
2023-05-09T00:43:36.786Z,991.31
2023-05-09T00:44:36.821Z,991.31
2023-05-09T00:45:36.787Z,991.30
2023-05-09T00:46:36.912Z,991.27
2023-05-09T00:47:36.774Z,991.27
2023-05-09T00:48:36.769Z,991.25
2023-05-09T00:49:36.747Z,991.22
2023-05-09T00:50:36.758Z,991.20
2023-05-09T00:51:36.718Z,991.19
2023-05-09T00:52:36.729Z,991.16
2023-05-09T00:53:36.738Z,991.15
2023-05-09T00:54:36.716Z,991.16
2023-05-09T00:55:36.719Z,991.15
2023-05-09T00:56:36.696Z,991.14
2023-05-09T00:57:36.768Z,991.13
2023-05-09T00:58:36.682Z,991.13
2023-05-09T00:59:36.675Z,991.10
2023-05-09T01:00:36.684Z,991.08
2023-05-09T01:01:36.742Z,991.09
2023-05-09T01:02:36.708Z,991.07
2023-05-09T01:03:36.793Z,991.05
2023-05-09T01:04:36.618Z,991.04
2023-05-09T01:05:36.606Z,991.04
2023-05-09T01:06:36.640Z,991.03
2023-05-09T01:07:36.633Z,991.02
2023-05-09T01:08:36.615Z,991.03
2023-05-09T01:09:36.589Z,991.02
2023-05-09T01:10:36.583Z,991.01
2023-05-09T01:11:36.566Z,991.02
2023-05-09T01:12:36.580Z,991.02
2023-05-09T01:13:36.669Z,991.01
2023-05-09T01:14:36.573Z,991.01
2023-05-09T01:15:36.597Z,991.02
2023-05-09T01:16:36.542Z,991.01
2023-05-09T01:17:36.569Z,991.02
2023-05-09T01:18:36.547Z,991.02
2023-05-09T01:19:36.519Z,991.01
2023-05-09T01:20:36.515Z,991.01
2023-05-09T01:21:36.494Z,991.03
2023-05-09T01:22:36.507Z,991.01
2023-05-09T01:23:36.483Z,990.99
2023-05-09T01:24:36.528Z,990.98
2023-05-09T01:25:36.521Z,990.97
2023-05-09T01:26:36.486Z,990.96
2023-05-09T01:27:36.464Z,990.96
2023-05-09T01:28:36.448Z,990.96
2023-05-09T01:29:36.594Z,990.94
2023-05-09T01:30:36.484Z,990.94
2023-05-09T01:31:36.481Z,990.93
2023-05-09T01:32:36.492Z,990.91
2023-05-09T01:33:36.389Z,990.91
2023-05-09T01:34:36.394Z,990.91
2023-05-09T01:35:36.409Z,990.90
2023-05-09T01:36:36.433Z,990.89
2023-05-09T01:37:36.365Z,990.89
2023-05-09T01:38:36.947Z,990.90
2023-05-09T01:39:36.373Z,990.91
2023-05-09T01:40:36.939Z,990.90
2023-05-09T01:41:36.324Z,990.89
2023-05-09T01:42:36.358Z,990.88
2023-05-09T01:43:36.405Z,990.88
2023-05-09T01:44:36.312Z,990.88
2023-05-09T01:45:36.371Z,990.87
2023-05-09T01:46:36.325Z,990.86
2023-05-09T01:47:36.317Z,990.86
2023-05-09T01:48:36.310Z,990.85
2023-05-09T01:49:36.271Z,990.84
2023-05-09T01:50:36.249Z,990.84
2023-05-09T01:51:36.250Z,990.84
2023-05-09T01:52:36.246Z,990.83
2023-05-09T01:53:36.296Z,990.83
2023-05-09T01:54:36.315Z,990.82
2023-05-09T01:55:36.239Z,990.82
2023-05-09T01:56:36.219Z,990.82
2023-05-09T01:57:36.193Z,990.82
2023-05-09T01:58:36.236Z,990.83
2023-05-09T01:59:36.170Z,990.83
2023-05-09T02:00:36.213Z,990.82
2023-05-09T02:01:36.270Z,990.82
2023-05-09T02:02:36.234Z,990.81
2023-05-09T02:03:36.139Z,990.80
2023-05-09T02:04:36.155Z,990.80
2023-05-09T02:05:36.131Z,990.79
2023-05-09T02:06:36.174Z,990.78
2023-05-09T02:07:36.130Z,990.77
2023-05-09T02:08:36.152Z,990.77
2023-05-09T02:09:36.112Z,990.77
2023-05-09T02:10:36.096Z,990.77
2023-05-09T02:11:36.105Z,990.78
2023-05-09T02:12:36.080Z,990.77
2023-05-09T02:13:36.064Z,990.77
2023-05-09T02:14:36.067Z,990.76
2023-05-09T02:15:36.055Z,990.75
2023-05-09T02:16:36.140Z,990.75
2023-05-09T02:17:36.187Z,990.75
2023-05-09T02:18:36.029Z,990.75
2023-05-09T02:19:36.000Z,990.75
2023-05-09T02:20:36.037Z,990.74
2023-05-09T02:21:36.003Z,990.73
2023-05-09T02:22:36.008Z,990.73
2023-05-09T02:23:35.991Z,990.71
2023-05-09T02:24:36.006Z,990.70
2023-05-09T02:25:35.961Z,990.71
2023-05-09T02:26:35.988Z,990.71
2023-05-09T02:27:35.939Z,990.72
2023-05-09T02:28:35.947Z,990.73
2023-05-09T02:29:35.915Z,990.73
2023-05-09T02:30:35.959Z,990.70
2023-05-09T02:31:35.959Z,990.70
2023-05-09T02:32:36.017Z,990.71
2023-05-09T02:33:36.086Z,990.70
2023-05-09T02:34:35.892Z,990.70
2023-05-09T02:35:35.890Z,990.70
2023-05-09T02:36:35.882Z,990.69
2023-05-09T02:37:35.866Z,990.69
2023-05-09T02:38:35.877Z,990.69
2023-05-09T02:39:35.839Z,990.69
2023-05-09T02:40:35.848Z,990.70
2023-05-09T02:41:35.831Z,990.71
2023-05-09T02:42:35.849Z,990.72
2023-05-09T02:43:35.808Z,990.72
2023-05-09T02:44:35.856Z,990.72
2023-05-09T02:45:35.799Z,990.70
2023-05-09T02:46:35.872Z,990.70
2023-05-09T02:47:35.815Z,990.71
2023-05-09T02:48:35.798Z,990.71
2023-05-09T02:49:35.854Z,990.70
2023-05-09T02:50:35.791Z,990.70
2023-05-09T02:51:35.747Z,990.69
2023-05-09T02:52:35.863Z,990.68
2023-05-09T02:53:35.782Z,990.66
2023-05-09T02:54:35.731Z,990.65
2023-05-09T02:55:35.701Z,990.63
2023-05-09T02:56:35.704Z,990.62
2023-05-09T02:57:35.695Z,990.62
2023-05-09T02:58:35.699Z,990.62
2023-05-09T02:59:35.783Z,990.61
2023-05-09T03:00:35.711Z,990.61
2023-05-09T03:01:35.697Z,990.61
2023-05-09T03:02:35.780Z,990.60
2023-05-09T03:03:35.738Z,990.58
2023-05-09T03:04:35.647Z,990.57
2023-05-09T03:05:35.778Z,990.56
2023-05-09T03:06:35.646Z,990.55
2023-05-09T03:07:35.627Z,990.56
2023-05-09T03:08:35.630Z,990.55
2023-05-09T03:09:35.595Z,990.55
2023-05-09T03:10:35.593Z,990.53
2023-05-09T03:11:35.605Z,990.53
2023-05-09T03:12:35.584Z,990.53
2023-05-09T03:13:35.566Z,990.52
2023-05-09T03:14:35.558Z,990.52
2023-05-09T03:15:35.559Z,990.51
2023-05-09T03:16:35.565Z,990.53
2023-05-09T03:17:35.600Z,990.51
2023-05-09T03:18:35.541Z,990.48
2023-05-09T03:19:35.528Z,990.49
2023-05-09T03:20:35.547Z,990.46
2023-05-09T03:21:35.601Z,990.42
2023-05-09T03:22:35.509Z,990.43
2023-05-09T03:23:35.512Z,990.42
2023-05-09T03:24:35.497Z,990.40
2023-05-09T03:25:35.475Z,990.40
2023-05-09T03:26:35.479Z,990.40
2023-05-09T03:27:36.467Z,990.40
2023-05-09T03:28:35.497Z,990.40
2023-05-09T03:29:35.451Z,990.40
2023-05-09T03:30:35.452Z,990.39
2023-05-09T03:31:35.445Z,990.37
2023-05-09T03:32:35.452Z,990.37
2023-05-09T03:33:35.409Z,990.36
2023-05-09T03:34:35.536Z,990.36
2023-05-09T03:35:35.395Z,990.36
2023-05-09T03:36:35.452Z,990.36
2023-05-09T03:37:35.457Z,990.36
2023-05-09T03:38:35.376Z,990.37
2023-05-09T03:39:35.376Z,990.37
2023-05-09T03:40:35.371Z,990.37
2023-05-09T03:41:35.336Z,990.37
2023-05-09T03:42:35.349Z,990.37
2023-05-09T03:43:35.343Z,990.37
2023-05-09T03:44:35.335Z,990.38
2023-05-09T03:45:35.381Z,990.37
2023-05-09T03:46:35.332Z,990.38
2023-05-09T03:47:35.342Z,990.37
2023-05-09T03:48:35.319Z,990.37
2023-05-09T03:49:35.272Z,990.37
2023-05-09T03:50:35.264Z,990.36
2023-05-09T03:51:35.297Z,990.35
2023-05-09T03:52:35.253Z,990.34
2023-05-09T03:53:35.246Z,990.32
2023-05-09T03:54:35.252Z,990.29
2023-05-09T03:55:35.225Z,990.28
2023-05-09T03:56:35.231Z,990.26
2023-05-09T03:57:35.255Z,990.22
2023-05-09T03:58:35.224Z,990.22
2023-05-09T03:59:35.193Z,990.21
2023-05-09T04:00:35.209Z,990.20
2023-05-09T04:01:42.751Z,990.20
2023-05-09T04:02:35.296Z,990.21
2023-05-09T04:03:35.271Z,990.23
2023-05-09T04:04:35.159Z,990.23
2023-05-09T04:05:35.139Z,990.23
2023-05-09T04:06:35.160Z,990.25
2023-05-09T04:07:35.140Z,990.24
2023-05-09T04:08:35.118Z,990.24
2023-05-09T04:09:35.251Z,990.22
2023-05-09T04:10:35.112Z,990.22
2023-05-09T04:11:35.215Z,990.20
2023-05-09T04:12:35.135Z,990.18
2023-05-09T04:13:35.125Z,990.15
2023-05-09T04:14:35.092Z,990.13
2023-05-09T04:15:35.126Z,990.12
2023-05-09T04:16:35.108Z,990.11
2023-05-09T04:17:35.113Z,990.11
2023-05-09T04:18:35.030Z,990.10
2023-05-09T04:19:35.119Z,990.12
2023-05-09T04:20:35.043Z,990.14
2023-05-09T04:21:35.078Z,990.14
2023-05-09T04:22:35.045Z,990.15
2023-05-09T04:23:35.026Z,990.15
2023-05-09T04:24:34.996Z,990.14
2023-05-09T04:25:35.070Z,990.14
2023-05-09T04:26:34.982Z,990.13
2023-05-09T04:27:35.008Z,990.13
2023-05-09T04:28:34.955Z,990.13
2023-05-09T04:29:34.962Z,990.13
2023-05-09T04:30:34.996Z,990.12
2023-05-09T04:31:35.046Z,990.10
2023-05-09T04:32:35.031Z,990.07
2023-05-09T04:33:35.067Z,990.05
2023-05-09T04:34:34.997Z,990.04
2023-05-09T04:35:34.916Z,990.01
2023-05-09T04:36:35.520Z,989.99
2023-05-09T04:37:34.902Z,989.96
2023-05-09T04:38:34.904Z,989.95
2023-05-09T04:39:34.934Z,989.95
2023-05-09T04:40:34.878Z,989.94
2023-05-09T04:41:34.941Z,989.94
2023-05-09T04:42:34.912Z,989.93
2023-05-09T04:43:34.851Z,989.92
2023-05-09T04:44:34.817Z,989.92
2023-05-09T04:45:34.879Z,989.92
2023-05-09T04:46:34.810Z,989.92
2023-05-09T04:47:34.830Z,989.92
2023-05-09T04:48:34.793Z,989.92
2023-05-09T04:49:34.790Z,989.92
2023-05-09T04:50:34.807Z,989.89
2023-05-09T04:51:34.786Z,989.89
2023-05-09T04:52:34.760Z,989.89
2023-05-09T04:53:34.766Z,989.88
2023-05-09T04:54:35.009Z,989.87
2023-05-09T04:55:34.786Z,989.88
2023-05-09T04:56:34.762Z,989.88
2023-05-09T04:57:35.164Z,989.89
2023-05-09T04:58:34.721Z,989.90
2023-05-09T04:59:34.722Z,989.89
2023-05-09T05:00:34.703Z,989.90
2023-05-09T05:01:34.788Z,989.91
2023-05-09T05:02:34.726Z,989.90
2023-05-09T05:03:34.703Z,989.88
2023-05-09T05:04:34.760Z,989.87
2023-05-09T05:05:36.991Z,989.88
2023-05-09T05:06:34.666Z,989.86
2023-05-09T05:07:34.757Z,989.82
2023-05-09T05:08:34.697Z,989.82
2023-05-09T05:09:34.704Z,989.81
2023-05-09T05:10:34.640Z,989.81
2023-05-09T05:11:34.613Z,989.82
2023-05-09T05:12:34.619Z,989.83
2023-05-09T05:13:34.727Z,989.83
2023-05-09T05:14:34.670Z,989.83
2023-05-09T05:15:34.587Z,989.82
2023-05-09T05:16:35.083Z,989.81
2023-05-09T05:17:34.604Z,989.80
2023-05-09T05:18:34.570Z,989.79
2023-05-09T05:19:34.615Z,989.77
2023-05-09T05:20:34.542Z,989.75
2023-05-09T05:21:34.670Z,989.75
2023-05-09T05:22:34.548Z,989.75
2023-05-09T05:23:34.519Z,989.74
2023-05-09T05:24:34.491Z,989.74
2023-05-09T05:25:34.563Z,989.73
2023-05-09T05:26:34.481Z,989.73
2023-05-09T05:27:34.476Z,989.74
2023-05-09T05:28:34.465Z,989.75
2023-05-09T05:29:34.543Z,989.75
2023-05-09T05:30:35.434Z,989.74
2023-05-09T05:31:34.498Z,989.73
2023-05-09T05:32:34.488Z,989.71
2023-05-09T05:33:34.466Z,989.70
2023-05-09T05:34:34.432Z,989.68
2023-05-09T05:35:34.424Z,989.70
2023-05-09T05:36:34.936Z,989.71
2023-05-09T05:37:34.438Z,989.72
2023-05-09T05:38:34.382Z,989.72
2023-05-09T05:39:34.371Z,989.72
2023-05-09T05:40:34.510Z,989.72
2023-05-09T05:41:34.360Z,989.71
2023-05-09T05:42:34.344Z,989.68
2023-05-09T05:43:34.475Z,989.65
2023-05-09T05:44:34.358Z,989.63
2023-05-09T05:45:34.427Z,989.62
2023-05-09T05:46:34.299Z,989.61
2023-05-09T05:47:34.314Z,989.59
2023-05-09T05:48:34.305Z,989.59
2023-05-09T05:49:34.296Z,989.58
2023-05-09T05:50:34.385Z,989.58
2023-05-09T05:51:34.278Z,989.58
2023-05-09T05:52:34.251Z,989.60
2023-05-09T05:53:34.282Z,989.61
2023-05-09T05:54:34.276Z,989.59
2023-05-09T05:55:34.253Z,989.57
2023-05-09T05:56:34.202Z,989.54
2023-05-09T05:57:34.231Z,989.53
2023-05-09T05:58:34.193Z,989.52
2023-05-09T05:59:34.203Z,989.51
2023-05-09T06:00:34.209Z,989.50
2023-05-09T06:01:34.262Z,989.50
2023-05-09T06:02:34.231Z,989.50
2023-05-09T06:03:34.280Z,989.51
2023-05-09T06:04:34.190Z,989.52
2023-05-09T06:05:34.144Z,989.54
2023-05-09T06:06:34.202Z,989.54
2023-05-09T06:07:34.227Z,989.54
2023-05-09T06:08:34.137Z,989.53
2023-05-09T06:09:34.124Z,989.52
2023-05-09T06:10:34.121Z,989.50
2023-05-09T06:11:34.141Z,989.47
2023-05-09T06:12:34.068Z,989.45
2023-05-09T06:13:34.089Z,989.45
2023-05-09T06:14:34.071Z,989.44
2023-05-09T06:15:34.059Z,989.44
2023-05-09T06:16:34.082Z,989.45
2023-05-09T06:17:34.156Z,989.47
2023-05-09T06:18:34.131Z,989.45
2023-05-09T06:19:34.035Z,989.47
2023-05-09T06:20:34.010Z,989.43
2023-05-09T06:21:34.011Z,989.42
2023-05-09T06:22:34.003Z,989.39
2023-05-09T06:23:34.007Z,989.37
2023-05-09T06:24:36.097Z,989.35
2023-05-09T06:25:33.977Z,989.33
2023-05-09T06:26:33.950Z,989.33
2023-05-09T06:27:33.950Z,989.31
2023-05-09T06:28:33.960Z,989.31
2023-05-09T06:29:34.096Z,989.30
2023-05-09T06:30:34.030Z,989.30
2023-05-09T06:31:33.992Z,989.29
2023-05-09T06:32:33.988Z,989.28
2023-05-09T06:33:34.012Z,989.26
2023-05-09T06:34:33.894Z,989.25
2023-05-09T06:35:33.886Z,989.23
2023-05-09T06:36:33.943Z,989.22
2023-05-09T06:37:33.859Z,989.20
2023-05-09T06:38:33.853Z,989.18
2023-05-09T06:39:33.880Z,989.18
2023-05-09T06:40:33.842Z,989.18
2023-05-09T06:41:33.843Z,989.20
2023-05-09T06:42:33.842Z,989.17
2023-05-09T06:43:33.830Z,989.19
2023-05-09T06:44:33.825Z,989.17
2023-05-09T06:45:33.914Z,989.13
2023-05-09T06:46:33.833Z,989.13
2023-05-09T06:47:33.871Z,989.11
2023-05-09T06:48:33.815Z,989.09
2023-05-09T06:49:33.779Z,989.07
2023-05-09T06:50:34.035Z,989.08
2023-05-09T06:51:33.761Z,989.08
2023-05-09T06:52:33.748Z,989.07
2023-05-09T06:53:33.745Z,989.06
2023-05-09T06:54:33.798Z,989.06
2023-05-09T06:55:33.740Z,989.04
2023-05-09T06:56:33.712Z,989.03
2023-05-09T06:57:33.701Z,989.02
2023-05-09T06:58:33.707Z,989.00
2023-05-09T06:59:33.832Z,988.98
2023-05-09T07:00:33.723Z,988.95
2023-05-09T07:01:33.709Z,988.94
2023-05-09T07:02:33.680Z,988.95
2023-05-09T07:03:33.673Z,988.92
2023-05-09T07:04:33.731Z,988.93
2023-05-09T07:05:33.805Z,988.90
2023-05-09T07:06:33.639Z,988.88
2023-05-09T07:07:33.654Z,988.86
2023-05-09T07:08:33.652Z,988.87
2023-05-09T07:09:33.648Z,988.84
2023-05-09T07:10:33.588Z,988.81
2023-05-09T07:11:33.587Z,988.80
2023-05-09T07:12:33.991Z,988.78
2023-05-09T07:13:33.619Z,988.76
2023-05-09T07:14:33.570Z,988.75
2023-05-09T07:15:41.329Z,988.73
2023-05-09T07:16:37.320Z,988.72
2023-05-09T07:17:33.608Z,988.72
2023-05-09T07:18:33.554Z,988.72
2023-05-09T07:19:33.567Z,988.71
2023-05-09T07:20:33.520Z,988.70
2023-05-09T07:21:33.606Z,988.69
2023-05-09T07:22:35.532Z,988.68
2023-05-09T07:23:34.054Z,988.67
2023-05-09T07:24:33.487Z,988.67
2023-05-09T07:25:33.512Z,988.67
2023-05-09T07:26:33.628Z,988.64
2023-05-09T07:27:33.486Z,988.65
2023-05-09T07:28:33.464Z,988.64
2023-05-09T07:29:33.470Z,988.62
2023-05-09T07:30:33.440Z,988.61
2023-05-09T07:31:35.301Z,988.57
2023-05-09T07:32:33.461Z,988.53
2023-05-09T07:33:33.517Z,988.54
2023-05-09T07:34:33.485Z,988.55
2023-05-09T07:35:33.428Z,988.53
2023-05-09T07:36:35.391Z,988.52
2023-05-09T07:37:33.489Z,988.51
2023-05-09T07:38:33.386Z,988.49
2023-05-09T07:39:33.371Z,988.51
2023-05-09T07:40:33.397Z,988.50
2023-05-09T07:41:33.354Z,988.47
2023-05-09T07:42:33.367Z,988.44
2023-05-09T07:43:33.350Z,988.43
2023-05-09T07:44:33.340Z,988.38
2023-05-09T07:45:33.357Z,988.40
2023-05-09T07:46:33.325Z,988.39
2023-05-09T07:47:33.480Z,988.36
2023-05-09T07:48:33.332Z,988.35
2023-05-09T07:49:33.297Z,988.35
2023-05-09T07:50:33.302Z,988.30
2023-05-09T07:51:33.294Z,988.29
2023-05-09T07:52:33.251Z,988.27
2023-05-09T07:53:33.352Z,988.27
2023-05-09T07:54:33.313Z,988.21
2023-05-09T07:55:33.262Z,988.25
2023-05-09T07:56:33.242Z,988.22
2023-05-09T07:57:33.287Z,988.20
2023-05-09T07:58:33.233Z,988.14
2023-05-09T07:59:33.293Z,988.16
2023-05-09T08:00:33.269Z,988.23
2023-05-09T08:01:33.209Z,988.23
2023-05-09T08:02:33.291Z,988.22
2023-05-09T08:03:33.221Z,988.23
2023-05-09T08:04:33.231Z,988.15
2023-05-09T08:05:33.244Z,988.21
2023-05-09T08:06:33.185Z,988.25
2023-05-09T08:07:33.155Z,988.21
2023-05-09T08:08:33.158Z,988.23
2023-05-09T08:09:33.248Z,988.23
2023-05-09T08:10:33.125Z,988.23
2023-05-09T08:11:33.177Z,988.26
2023-05-09T08:12:33.319Z,988.23
2023-05-09T08:13:33.123Z,988.22
2023-05-09T08:14:33.115Z,988.20
2023-05-09T08:15:33.145Z,988.17
2023-05-09T08:16:33.170Z,988.15
2023-05-09T08:17:33.183Z,988.13
2023-05-09T08:18:33.065Z,988.17
2023-05-09T08:19:33.067Z,988.13
2023-05-09T08:20:33.052Z,988.14
2023-05-09T08:21:33.063Z,988.13
2023-05-09T08:22:33.030Z,988.11
2023-05-09T08:23:33.037Z,988.08
2023-05-09T08:24:33.014Z,988.07
2023-05-09T08:25:33.100Z,988.03
2023-05-09T08:26:33.002Z,988.04
2023-05-09T08:27:33.037Z,988.01
2023-05-09T08:28:33.052Z,988.01
2023-05-09T08:29:32.975Z,987.98
2023-05-09T08:30:33.013Z,987.99
2023-05-09T08:31:32.983Z,987.99
2023-05-09T08:32:32.979Z,988.01
2023-05-09T08:33:32.938Z,987.99
2023-05-09T08:34:32.933Z,987.99
2023-05-09T08:35:32.946Z,988.00
2023-05-09T08:36:33.023Z,988.00
2023-05-09T08:37:32.910Z,987.97
2023-05-09T08:38:32.974Z,987.97
2023-05-09T08:39:33.020Z,987.98
2023-05-09T08:40:32.887Z,987.97
2023-05-09T08:41:32.961Z,988.00
2023-05-09T08:42:32.898Z,987.94
2023-05-09T08:43:32.858Z,987.92
2023-05-09T08:44:32.850Z,987.87
2023-05-09T08:45:32.877Z,987.87
2023-05-09T08:46:32.905Z,987.86
2023-05-09T08:47:32.830Z,987.82
2023-05-09T08:48:34.055Z,987.82
2023-05-09T08:49:32.819Z,987.77
2023-05-09T08:50:33.078Z,987.67
2023-05-09T08:51:32.807Z,987.79
2023-05-09T08:52:32.896Z,987.81
2023-05-09T08:53:32.775Z,987.81
2023-05-09T08:54:32.790Z,987.80
2023-05-09T08:55:32.765Z,987.78
2023-05-09T08:56:32.760Z,987.76
2023-05-09T08:57:32.839Z,987.76
2023-05-09T08:58:32.788Z,987.68
2023-05-09T08:59:32.745Z,987.70
2023-05-09T09:00:32.719Z,987.68
2023-05-09T09:01:32.750Z,987.66
2023-05-09T09:02:32.773Z,987.66
2023-05-09T09:03:33.411Z,987.63
2023-05-09T09:04:32.783Z,987.62
2023-05-09T09:05:41.365Z,987.65
2023-05-09T09:06:33.667Z,987.65
2023-05-09T09:07:32.665Z,987.66
2023-05-09T09:08:32.643Z,987.66
2023-05-09T09:09:32.714Z,987.67
2023-05-09T09:10:32.674Z,987.66
2023-05-09T09:11:32.609Z,987.71
2023-05-09T09:12:32.623Z,987.70
2023-05-09T09:13:32.715Z,987.65
2023-05-09T09:14:32.623Z,987.66
2023-05-09T09:15:32.603Z,987.65
2023-05-09T09:16:32.639Z,987.64
2023-05-09T09:17:32.743Z,987.60
2023-05-09T09:18:32.633Z,987.64
2023-05-09T09:19:32.799Z,987.66
2023-05-09T09:20:32.627Z,987.63
2023-05-09T09:21:32.537Z,987.62
2023-05-09T09:22:32.539Z,987.61
2023-05-09T09:23:32.524Z,987.59
2023-05-09T09:24:32.917Z,987.59
2023-05-09T09:25:32.526Z,987.52
2023-05-09T09:26:32.530Z,987.50
2023-05-09T09:27:32.478Z,987.51
2023-05-09T09:28:32.483Z,987.51
2023-05-09T09:29:32.568Z,987.50
2023-05-09T09:30:32.466Z,987.53
2023-05-09T09:31:32.547Z,987.48
2023-05-09T09:32:32.496Z,987.48
2023-05-09T09:33:32.482Z,987.42
2023-05-09T09:34:32.443Z,987.35
2023-05-09T09:35:32.409Z,987.43
2023-05-09T09:36:32.475Z,987.40
2023-05-09T09:37:32.417Z,987.37
2023-05-09T09:38:32.451Z,987.39
2023-05-09T09:39:32.391Z,987.36
2023-05-09T09:40:32.398Z,987.39
2023-05-09T09:41:32.368Z,987.39
2023-05-09T09:42:32.372Z,987.42
2023-05-09T09:43:32.416Z,987.36
2023-05-09T09:44:32.451Z,987.36
2023-05-09T09:45:32.427Z,987.32
2023-05-09T09:46:32.444Z,987.24
2023-05-09T09:47:32.397Z,987.26
2023-05-09T09:48:32.331Z,987.25
2023-05-09T09:49:32.344Z,987.21
2023-05-09T09:50:32.347Z,987.19
2023-05-09T09:51:32.285Z,987.18
2023-05-09T09:52:32.318Z,987.15
2023-05-09T09:53:32.275Z,987.13
2023-05-09T09:54:32.276Z,987.17
2023-05-09T09:55:32.389Z,987.15
2023-05-09T09:56:32.272Z,987.14
2023-05-09T09:57:32.239Z,987.13
2023-05-09T09:58:32.274Z,987.11
2023-05-09T09:59:32.213Z,987.12
2023-05-09T10:00:32.213Z,987.08
2023-05-09T10:01:32.256Z,987.08
2023-05-09T10:02:32.256Z,987.01
2023-05-09T10:03:32.257Z,987.02
2023-05-09T10:04:32.226Z,986.99
2023-05-09T10:05:32.200Z,986.95
2023-05-09T10:06:32.158Z,986.92
2023-05-09T10:07:32.198Z,986.93
2023-05-09T10:08:32.290Z,986.93
2023-05-09T10:09:32.195Z,986.93
2023-05-09T10:10:32.147Z,986.92
2023-05-09T10:11:32.118Z,986.89
2023-05-09T10:12:32.131Z,986.88
2023-05-09T10:13:32.188Z,986.89
2023-05-09T10:14:34.239Z,986.89
2023-05-09T10:15:41.374Z,986.88
2023-05-09T10:16:43.824Z,986.87
2023-05-09T10:17:33.408Z,986.87
2023-05-09T10:18:32.264Z,986.85
2023-05-09T10:19:32.079Z,986.85
2023-05-09T10:20:32.067Z,986.83
2023-05-09T10:21:32.023Z,986.79
2023-05-09T10:22:32.037Z,986.78
2023-05-09T10:23:32.088Z,986.79
2023-05-09T10:24:32.088Z,986.76
2023-05-09T10:25:31.997Z,986.73
2023-05-09T10:26:32.040Z,986.71
2023-05-09T10:27:31.990Z,986.68
2023-05-09T10:28:32.026Z,986.66
2023-05-09T10:29:31.978Z,986.64
2023-05-09T10:30:33.935Z,986.60
2023-05-09T10:31:32.036Z,986.59
2023-05-09T10:32:31.998Z,986.57
2023-05-09T10:33:32.039Z,986.58
2023-05-09T10:34:31.967Z,986.56
2023-05-09T10:35:32.001Z,986.54
2023-05-09T10:36:31.923Z,986.51
2023-05-09T10:37:33.419Z,986.49
2023-05-09T10:38:31.906Z,986.47
2023-05-09T10:39:31.900Z,986.49
2023-05-09T10:40:31.920Z,986.48
2023-05-09T10:41:31.850Z,986.48
2023-05-09T10:42:31.957Z,986.47
2023-05-09T10:43:32.237Z,986.46
2023-05-09T10:44:32.148Z,986.43
2023-05-09T10:45:31.831Z,986.42
2023-05-09T10:46:31.858Z,986.39
2023-05-09T10:47:31.872Z,986.36
2023-05-09T10:48:31.829Z,986.34
2023-05-09T10:49:31.884Z,986.32
2023-05-09T10:50:31.835Z,986.29
2023-05-09T10:51:31.792Z,986.27
2023-05-09T10:52:31.875Z,986.25
2023-05-09T10:53:31.762Z,986.24
2023-05-09T10:54:31.790Z,986.21
2023-05-09T10:55:31.760Z,986.18
2023-05-09T10:56:31.783Z,986.19
2023-05-09T10:57:31.849Z,986.17
2023-05-09T10:58:31.716Z,986.15
2023-05-09T10:59:31.700Z,986.13
2023-05-09T11:00:31.694Z,986.14
2023-05-09T11:01:31.749Z,986.11
2023-05-09T11:02:31.735Z,986.09
2023-05-09T11:03:31.745Z,986.07
2023-05-09T11:04:31.818Z,986.08
2023-05-09T11:05:31.743Z,986.02
2023-05-09T11:06:31.676Z,986.02
2023-05-09T11:07:31.645Z,985.98
2023-05-09T11:08:31.641Z,985.93
2023-05-09T11:09:31.634Z,985.85
2023-05-09T11:10:31.654Z,985.82
2023-05-09T11:11:31.605Z,985.80
2023-05-09T11:13:45.586Z,985.75
2023-05-09T11:14:45.420Z,985.75
2023-05-09T11:15:45.410Z,985.71
2023-05-09T11:16:45.521Z,985.69
2023-05-09T11:17:45.437Z,985.71
2023-05-09T11:18:45.411Z,985.71
2023-05-09T11:19:45.376Z,985.71
2023-05-09T11:20:45.481Z,985.67
2023-05-09T11:21:45.385Z,985.65
2023-05-09T11:22:45.356Z,985.64
2023-05-09T11:23:45.340Z,985.63
2023-05-09T11:24:45.341Z,985.63
2023-05-09T11:25:45.340Z,985.65
2023-05-09T11:26:45.335Z,985.62
2023-05-09T11:27:45.336Z,985.61
2023-05-09T11:28:45.316Z,985.63
2023-05-09T11:29:45.298Z,985.61
2023-05-09T11:30:45.309Z,985.60
2023-05-09T11:31:45.305Z,985.57
2023-05-09T11:32:45.445Z,985.57
2023-05-09T11:33:45.282Z,985.57
2023-05-09T11:34:45.316Z,985.56
2023-05-09T11:35:45.243Z,985.59
2023-05-09T11:36:45.323Z,985.51
2023-05-09T11:37:45.246Z,985.49
2023-05-09T11:38:45.230Z,985.51
2023-05-09T11:39:45.218Z,985.49
2023-05-09T11:40:45.237Z,985.44
2023-05-09T11:41:45.203Z,985.42
2023-05-09T11:42:45.215Z,985.40
2023-05-09T11:43:45.171Z,985.36
2023-05-09T11:44:45.166Z,985.36
2023-05-09T11:45:45.176Z,985.37
2023-05-09T11:46:45.187Z,985.41
2023-05-09T11:47:45.185Z,985.33
2023-05-09T11:48:45.152Z,985.33
2023-05-09T11:49:45.130Z,985.27
2023-05-09T11:50:45.131Z,985.23
2023-05-09T11:51:45.143Z,985.27
2023-05-09T11:52:45.198Z,985.20
2023-05-09T11:53:45.091Z,985.17
2023-05-09T11:54:45.093Z,985.17
2023-05-09T11:55:45.088Z,985.20
2023-05-09T11:56:45.137Z,985.19
2023-05-09T11:57:45.054Z,985.17
2023-05-09T11:58:45.097Z,985.17
2023-05-09T11:59:45.211Z,985.14
2023-05-09T12:00:45.062Z,985.14
2023-05-09T12:01:45.067Z,985.06
2023-05-09T12:02:45.203Z,985.04
2023-05-09T12:03:45.189Z,985.03
2023-05-09T12:04:45.026Z,985.05
2023-05-09T12:05:44.988Z,985.00
2023-05-09T12:06:45.567Z,985.01
2023-05-09T12:07:45.031Z,985.06
2023-05-09T12:08:45.120Z,984.99
2023-05-09T12:09:45.053Z,984.97
2023-05-09T12:10:44.969Z,984.89
2023-05-09T12:11:44.957Z,984.89
2023-05-09T12:12:44.977Z,984.81
2023-05-09T12:13:44.969Z,984.80
2023-05-09T12:14:44.958Z,984.79
2023-05-09T12:15:45.031Z,984.76
2023-05-09T12:16:44.933Z,984.75
2023-05-09T12:17:44.991Z,984.76
2023-05-09T12:18:44.897Z,984.81
2023-05-09T12:19:44.912Z,984.76
2023-05-09T12:20:44.898Z,984.75
2023-05-09T12:21:44.876Z,984.73
2023-05-09T12:22:44.986Z,984.69
2023-05-09T12:23:44.848Z,984.67
2023-05-09T12:24:44.940Z,984.65
2023-05-09T12:25:44.886Z,984.64
2023-05-09T12:26:44.875Z,984.66
2023-05-09T12:27:44.816Z,984.63
2023-05-09T12:28:44.816Z,984.68
2023-05-09T12:29:44.795Z,984.66